sensor_id;sensor_type;location;lat;lon;timestamp;pressure;altitude;pressure_sealevel;temperature;humidity
74552;BME280;63025;55.472;38.432;2023-04-25T00:01:41;100040.56;;;12.29;54.46
74552;BME280;63025;55.472;38.432;2023-04-25T00:04:07;100040.16;;;12.26;54.64
74552;BME280;63025;55.472;38.432;2023-04-25T00:06:34;100042.84;;;12.26;54.73
74552;BME280;63025;55.472;38.432;2023-04-25T00:09:05;100046.84;;;12.23;54.83
74552;BME280;63025;55.472;38.432;2023-04-25T00:11:33;100042.91;;;12.19;55.00
74552;BME280;63025;55.472;38.432;2023-04-25T00:13:59;100039.91;;;12.09;55.40
74552;BME280;63025;55.472;38.432;2023-04-25T00:16:28;100037.47;;;12.01;55.51
74552;BME280;63025;55.472;38.432;2023-04-25T00:18:55;100032.94;;;11.95;55.48
74552;BME280;63025;55.472;38.432;2023-04-25T00:21:21;100034.25;;;11.86;55.53
74552;BME280;63025;55.472;38.432;2023-04-25T00:23:47;100034.34;;;11.72;56.28
74552;BME280;63025;55.472;38.432;2023-04-25T00:26:13;100020.75;;;11.61;56.43
74552;BME280;63025;55.472;38.432;2023-04-25T00:28:39;100026.00;;;11.49;56.90
74552;BME280;63025;55.472;38.432;2023-04-25T00:31:05;100031.22;;;11.37;57.28
74552;BME280;63025;55.472;38.432;2023-04-25T00:33:31;100026.91;;;11.30;57.62
74552;BME280;63025;55.472;38.432;2023-04-25T00:35:57;100026.94;;;11.23;58.00
74552;BME280;63025;55.472;38.432;2023-04-25T00:38:23;100036.69;;;11.18;57.97
74552;BME280;63025;55.472;38.432;2023-04-25T00:40:49;100033.22;;;11.11;58.25
74552;BME280;63025;55.472;38.432;2023-04-25T00:43:15;100035.28;;;11.02;58.87
74552;BME280;63025;55.472;38.432;2023-04-25T00:45:42;100038.63;;;10.97;58.91
74552;BME280;63025;55.472;38.432;2023-04-25T00:48:08;100032.88;;;10.87;59.59
74552;BME280;63025;55.472;38.432;2023-04-25T00:50:35;100050.22;;;10.91;59.57
74552;BME280;63025;55.472;38.432;2023-04-25T00:53:02;100039.91;;;10.88;59.53
74552;BME280;63025;55.472;38.432;2023-04-25T00:55:29;100047.97;;;10.88;60.04
74552;BME280;63025;55.472;38.432;2023-04-25T00:57:57;100049.84;;;10.88;60.07
74552;BME280;63025;55.472;38.432;2023-04-25T01:00:23;100049.63;;;10.89;60.08
74552;BME280;63025;55.472;38.432;2023-04-25T01:02:49;100053.16;;;10.90;60.13
74552;BME280;63025;55.472;38.432;2023-04-25T01:05:16;100043.63;;;10.87;60.27
74552;BME280;63025;55.472;38.432;2023-04-25T01:07:42;100050.63;;;10.95;59.99
74552;BME280;63025;55.472;38.432;2023-04-25T01:10:08;100052.91;;;10.98;59.63
74552;BME280;63025;55.472;38.432;2023-04-25T01:12:34;100048.16;;;11.00;60.00
74552;BME280;63025;55.472;38.432;2023-04-25T01:15:00;100053.13;;;10.96;60.07
74552;BME280;63025;55.472;38.432;2023-04-25T01:17:30;100055.56;;;11.04;59.74
74552;BME280;63025;55.472;38.432;2023-04-25T01:19:57;100047.09;;;11.08;60.03
74552;BME280;63025;55.472;38.432;2023-04-25T01:22:23;100055.78;;;11.10;60.01
74552;BME280;63025;55.472;38.432;2023-04-25T01:24:50;100061.16;;;11.10;60.09
74552;BME280;63025;55.472;38.432;2023-04-25T01:27:16;100052.84;;;11.11;59.99
74552;BME280;63025;55.472;38.432;2023-04-25T01:29:43;100060.72;;;11.13;59.87
74552;BME280;63025;55.472;38.432;2023-04-25T01:32:10;100062.81;;;11.11;59.90
74552;BME280;63025;55.472;38.432;2023-04-25T01:34:36;100051.22;;;11.10;59.85
74552;BME280;63025;55.472;38.432;2023-04-25T01:37:02;100056.59;;;11.10;60.33
74552;BME280;63025;55.472;38.432;2023-04-25T01:39:28;100056.81;;;11.09;60.36
74552;BME280;63025;55.472;38.432;2023-04-25T01:41:55;100049.97;;;11.06;60.22
74552;BME280;63025;55.472;38.432;2023-04-25T01:44:21;100055.34;;;11.06;60.22
74552;BME280;63025;55.472;38.432;2023-04-25T01:46:47;100050.41;;;11.03;60.57
74552;BME280;63025;55.472;38.432;2023-04-25T01:49:13;100052.47;;;11.08;60.63
74552;BME280;63025;55.472;38.432;2023-04-25T01:51:42;100063.63;;;11.04;60.76
74552;BME280;63025;55.472;38.432;2023-04-25T01:54:10;100055.56;;;11.04;60.79
74552;BME280;63025;55.472;38.432;2023-04-25T01:56:38;100057.84;;;11.01;60.91
74552;BME280;63025;55.472;38.432;2023-04-25T01:59:06;100064.69;;;10.97;61.53
74552;BME280;63025;55.472;38.432;2023-04-25T02:01:51;100067.38;;;10.90;61.40
74552;BME280;63025;55.472;38.432;2023-04-25T02:04:26;100059.16;;;10.85;61.81
74552;BME280;63025;55.472;38.432;2023-04-25T02:06:52;100061.41;;;10.82;62.27
74552;BME280;63025;55.472;38.432;2023-04-25T02:09:18;100061.03;;;10.78;62.22
74552;BME280;63025;55.472;38.432;2023-04-25T02:11:49;100062.06;;;10.71;62.57
74552;BME280;63025;55.472;38.432;2023-04-25T02:14:28;100056.31;;;10.67;62.66
74552;BME280;63025;55.472;38.432;2023-04-25T02:17:14;100064.16;;;10.62;63.02
74552;BME280;63025;55.472;38.432;2023-04-25T02:19:41;100053.59;;;10.60;63.14
74552;BME280;63025;55.472;38.432;2023-04-25T02:22:07;100051.75;;;10.61;63.25
74552;BME280;63025;55.472;38.432;2023-04-25T02:24:32;100051.34;;;10.64;63.27
74552;BME280;63025;55.472;38.432;2023-04-25T02:27:00;100050.72;;;10.62;63.65
74552;BME280;63025;55.472;38.432;2023-04-25T02:29:27;100045.97;;;10.64;63.38
74552;BME280;63025;55.472;38.432;2023-04-25T02:31:53;100054.66;;;10.66;63.47
74552;BME280;63025;55.472;38.432;2023-04-25T02:34:19;100059.59;;;10.69;63.75
74552;BME280;63025;55.472;38.432;2023-04-25T02:36:45;100061.22;;;10.70;63.93
74552;BME280;63025;55.472;38.432;2023-04-25T02:39:11;100058.13;;;10.73;63.69
74552;BME280;63025;55.472;38.432;2023-04-25T02:41:37;100058.34;;;10.72;63.77
74552;BME280;63025;55.472;38.432;2023-04-25T02:44:03;100062.47;;;10.74;64.02
74552;BME280;63025;55.472;38.432;2023-04-25T02:46:28;100057.31;;;10.73;63.76
74552;BME280;63025;55.472;38.432;2023-04-25T02:48:54;100069.09;;;10.78;63.80
74552;BME280;63025;55.472;38.432;2023-04-25T02:51:20;100061.22;;;10.83;63.76
74552;BME280;63025;55.472;38.432;2023-04-25T02:53:46;100059.56;;;10.82;63.34
74552;BME280;63025;55.472;38.432;2023-04-25T02:56:12;100064.94;;;10.82;63.50
74552;BME280;63025;55.472;38.432;2023-04-25T02:58:39;100068.66;;;10.88;63.52
74552;BME280;63025;55.472;38.432;2023-04-25T03:01:05;100069.91;;;10.85;63.36
74552;BME280;63025;55.472;38.432;2023-04-25T03:03:31;100068.03;;;10.86;63.87
74552;BME280;63025;55.472;38.432;2023-04-25T03:05:56;100059.97;;;10.86;63.55
74552;BME280;63025;55.472;38.432;2023-04-25T03:08:27;100067.59;;;10.95;63.37
74552;BME280;63025;55.472;38.432;2023-04-25T03:11:00;100076.50;;;10.96;63.31
74552;BME280;63025;55.472;38.432;2023-04-25T03:13:26;100071.94;;;10.96;63.43
74552;BME280;63025;55.472;38.432;2023-04-25T03:15:53;100070.28;;;10.95;63.29
74552;BME280;63025;55.472;38.432;2023-04-25T03:18:19;100074.88;;;10.88;63.32
74552;BME280;63025;55.472;38.432;2023-04-25T03:20:44;100083.09;;;10.93;63.62
74552;BME280;63025;55.472;38.432;2023-04-25T03:23:10;100076.69;;;10.94;63.52
74552;BME280;63025;55.472;38.432;2023-04-25T03:25:40;100077.94;;;10.98;63.45
74552;BME280;63025;55.472;38.432;2023-04-25T03:28:06;100081.47;;;10.99;63.31
74552;BME280;63025;55.472;38.432;2023-04-25T03:30:32;100080.59;;;11.05;63.40
74552;BME280;63025;55.472;38.432;2023-04-25T03:32:58;100076.66;;;11.08;63.02
74552;BME280;63025;55.472;38.432;2023-04-25T03:35:25;100078.72;;;11.12;62.88
74552;BME280;63025;55.472;38.432;2023-04-25T03:37:50;100080.75;;;11.23;62.55
74552;BME280;63025;55.472;38.432;2023-04-25T03:40:22;100068.53;;;11.27;62.28
74552;BME280;63025;55.472;38.432;2023-04-25T03:43:23;100066.84;;;11.33;62.10
74552;BME280;63025;55.472;38.432;2023-04-25T03:45:56;100078.78;;;11.44;61.92
74552;BME280;63025;55.472;38.432;2023-04-25T03:48:23;100071.53;;;11.44;62.04
74552;BME280;63025;55.472;38.432;2023-04-25T03:50:50;100080.91;;;11.42;61.92
74552;BME280;63025;55.472;38.432;2023-04-25T03:53:16;100079.00;;;11.42;61.90
74552;BME280;63025;55.472;38.432;2023-04-25T03:56:08;100069.22;;;11.54;61.23
74552;BME280;63025;55.472;38.432;2023-04-25T03:58:37;100075.06;;;11.51;61.76
74552;BME280;63025;55.472;38.432;2023-04-25T04:01:02;100078.31;;;11.60;61.77
74552;BME280;63025;55.472;38.432;2023-04-25T04:03:34;100074.50;;;11.74;61.48
74552;BME280;63025;55.472;38.432;2023-04-25T04:06:03;100064.16;;;11.77;61.04
74552;BME280;63025;55.472;38.432;2023-04-25T04:08:31;100057.88;;;11.84;60.98
74552;BME280;63025;55.472;38.432;2023-04-25T04:10:59;100060.34;;;11.92;60.96
74552;BME280;63025;55.472;38.432;2023-04-25T04:13:27;100051.56;;;12.03;60.64
74552;BME280;63025;55.472;38.432;2023-04-25T04:15:53;100055.16;;;12.15;60.43
74552;BME280;63025;55.472;38.432;2023-04-25T04:18:19;100055.13;;;12.22;60.22
74552;BME280;63025;55.472;38.432;2023-04-25T04:20:45;100054.78;;;12.36;60.12
74552;BME280;63025;55.472;38.432;2023-04-25T04:23:11;100059.84;;;12.51;59.69
74552;BME280;63025;55.472;38.432;2023-04-25T04:25:37;100055.81;;;12.60;59.75
74552;BME280;63025;55.472;38.432;2023-04-25T04:28:12;100051.78;;;12.69;59.40
74552;BME280;63025;55.472;38.432;2023-04-25T04:31:01;100046.47;;;12.63;59.31
74552;BME280;63025;55.472;38.432;2023-04-25T04:33:28;100051.88;;;12.63;59.05
74552;BME280;63025;55.472;38.432;2023-04-25T04:35:58;100063.19;;;12.71;58.93
74552;BME280;63025;55.472;38.432;2023-04-25T04:38:24;100071.50;;;12.88;58.91
74552;BME280;63025;55.472;38.432;2023-04-25T04:40:54;100072.19;;;13.02;58.77
74552;BME280;63025;55.472;38.432;2023-04-25T04:43:28;100072.91;;;13.15;58.17
74552;BME280;63025;55.472;38.432;2023-04-25T04:46:22;100070.94;;;13.22;58.13
74552;BME280;63025;55.472;38.432;2023-04-25T04:49:11;100068.09;;;13.36;57.77
74552;BME280;63025;55.472;38.432;2023-04-25T04:51:43;100075.56;;;13.52;57.38
74552;BME280;63025;55.472;38.432;2023-04-25T04:54:31;100072.91;;;13.64;56.94
74552;BME280;63025;55.472;38.432;2023-04-25T04:57:16;100072.47;;;13.67;56.73
74552;BME280;63025;55.472;38.432;2023-04-25T05:00:02;100069.44;;;13.75;56.66
74552;BME280;63025;55.472;38.432;2023-04-25T05:02:48;100075.44;;;13.77;56.25
74552;BME280;63025;55.472;38.432;2023-04-25T05:05:29;100067.00;;;13.85;55.92
74552;BME280;63025;55.472;38.432;2023-04-25T05:08:10;100058.47;;;14.00;55.85
74552;BME280;63025;55.472;38.432;2023-04-25T05:10:59;100058.41;;;14.18;55.36
74552;BME280;63025;55.472;38.432;2023-04-25T05:13:53;100054.16;;;14.33;55.27
74552;BME280;63025;55.472;38.432;2023-04-25T05:16:38;100046.69;;;14.47;54.57
74552;BME280;63025;55.472;38.432;2023-04-25T05:19:21;100040.69;;;14.57;54.38
74552;BME280;63025;55.472;38.432;2023-04-25T05:22:10;100020.94;;;14.68;54.03
74552;BME280;63025;55.472;38.432;2023-04-25T05:25:02;100019.88;;;14.69;53.61
74552;BME280;63025;55.472;38.432;2023-04-25T05:27:47;100017.53;;;14.84;53.33
74552;BME280;63025;55.472;38.432;2023-04-25T05:30:31;100016.06;;;15.05;53.33
74552;BME280;63025;55.472;38.432;2023-04-25T05:33:05;100010.88;;;15.15;52.85
74552;BME280;63025;55.472;38.432;2023-04-25T05:35:32;100018.59;;;15.23;52.48
74552;BME280;63025;55.472;38.432;2023-04-25T05:37:58;100014.91;;;15.29;52.14
74552;BME280;63025;55.472;38.432;2023-04-25T05:40:39;100011.34;;;15.40;52.15
74552;BME280;63025;55.472;38.432;2023-04-25T05:43:18;100013.91;;;15.47;51.64
74552;BME280;63025;55.472;38.432;2023-04-25T05:45:54;100016.22;;;15.67;51.55
74552;BME280;63025;55.472;38.432;2023-04-25T05:48:35;100011.06;;;15.82;51.33
74552;BME280;63025;55.472;38.432;2023-04-25T05:51:24;100014.19;;;15.91;51.57
74552;BME280;63025;55.472;38.432;2023-04-25T05:54:17;100006.06;;;15.91;50.55
74552;BME280;63025;55.472;38.432;2023-04-25T05:56:43;100007.56;;;15.98;49.78
74552;BME280;63025;55.472;38.432;2023-04-25T05:59:09;100011.97;;;16.04;49.67
74552;BME280;63025;55.472;38.432;2023-04-25T06:01:35;100007.72;;;16.08;49.52
74552;BME280;63025;55.472;38.432;2023-04-25T06:04:01;100002.78;;;16.22;49.41
74552;BME280;63025;55.472;38.432;2023-04-25T06:06:27;100013.28;;;16.35;49.63
74552;BME280;63025;55.472;38.432;2023-04-25T06:08:53;100012.13;;;16.48;49.26
74552;BME280;63025;55.472;38.432;2023-04-25T06:11:19;100015.50;;;16.55;48.72
74552;BME280;63025;55.472;38.432;2023-04-25T06:13:46;99998.81;;;16.63;48.84
74552;BME280;63025;55.472;38.432;2023-04-25T06:16:12;100013.34;;;16.57;47.80
74552;BME280;63025;55.472;38.432;2023-04-25T06:18:38;100014.03;;;16.64;47.88
74552;BME280;63025;55.472;38.432;2023-04-25T06:21:04;100018.19;;;16.72;47.51
74552;BME280;63025;55.472;38.432;2023-04-25T06:23:30;100014.38;;;16.18;45.88
74552;BME280;63025;55.472;38.432;2023-04-25T06:26:01;100001.81;;;16.28;46.57
74552;BME280;63025;55.472;38.432;2023-04-25T06:28:29;100016.41;;;16.44;46.48
74552;BME280;63025;55.472;38.432;2023-04-25T06:30:55;100010.00;;;16.33;46.71
74552;BME280;63025;55.472;38.432;2023-04-25T06:33:22;100009.41;;;16.31;46.63
74552;BME280;63025;55.472;38.432;2023-04-25T06:35:50;100003.75;;;16.33;46.05
74552;BME280;63025;55.472;38.432;2023-04-25T06:38:21;100018.63;;;16.64;46.22
74552;BME280;63025;55.472;38.432;2023-04-25T06:40:50;100010.94;;;16.77;45.51
74552;BME280;63025;55.472;38.432;2023-04-25T06:43:17;100018.78;;;16.96;45.72
74552;BME280;63025;55.472;38.432;2023-04-25T06:45:46;100023.66;;;16.94;45.67
74552;BME280;63025;55.472;38.432;2023-04-25T06:48:12;100021.19;;;16.70;45.75
74552;BME280;63025;55.472;38.432;2023-04-25T06:50:37;100019.66;;;16.79;45.94
74552;BME280;63025;55.472;38.432;2023-04-25T06:53:03;100027.50;;;16.98;45.46
74552;BME280;63025;55.472;38.432;2023-04-25T06:55:30;100026.00;;;17.07;44.53
74552;BME280;63025;55.472;38.432;2023-04-25T06:58:09;100028.13;;;17.27;44.20
74552;BME280;63025;55.472;38.432;2023-04-25T07:00:58;100018.66;;;17.29;43.74
74552;BME280;63025;55.472;38.432;2023-04-25T07:03:25;100025.41;;;17.48;43.97
74552;BME280;63025;55.472;38.432;2023-04-25T07:05:56;100029.25;;;17.52;43.93
74552;BME280;63025;55.472;38.432;2023-04-25T07:08:23;100021.72;;;17.59;43.97
74552;BME280;63025;55.472;38.432;2023-04-25T07:10:49;100029.19;;;17.47;43.95
74552;BME280;63025;55.472;38.432;2023-04-25T07:13:15;100026.72;;;17.68;44.27
74552;BME280;63025;55.472;38.432;2023-04-25T07:15:41;100024.41;;;17.81;44.08
74552;BME280;63025;55.472;38.432;2023-04-25T07:18:08;100026.31;;;17.81;43.65
74552;BME280;63025;55.472;38.432;2023-04-25T07:20:34;100016.69;;;17.95;43.46
74552;BME280;63025;55.472;38.432;2023-04-25T07:23:01;100018.41;;;18.06;43.27
74552;BME280;63025;55.472;38.432;2023-04-25T07:25:27;100028.66;;;17.99;41.87
74552;BME280;63025;55.472;38.432;2023-04-25T07:27:54;100025.25;;;18.14;41.86
74552;BME280;63025;55.472;38.432;2023-04-25T07:30:21;100026.28;;;18.08;41.40
74552;BME280;63025;55.472;38.432;2023-04-25T07:32:49;100027.00;;;17.98;41.16
74552;BME280;63025;55.472;38.432;2023-04-25T07:35:16;100020.09;;;18.17;41.58
74552;BME280;63025;55.472;38.432;2023-04-25T07:37:42;100020.25;;;18.38;42.16
74552;BME280;63025;55.472;38.432;2023-04-25T07:40:12;100018.00;;;18.24;41.55
74552;BME280;63025;55.472;38.432;2023-04-25T07:42:43;100004.75;;;18.38;41.46
74552;BME280;63025;55.472;38.432;2023-04-25T07:45:10;99999.00;;;18.66;41.55
74552;BME280;63025;55.472;38.432;2023-04-25T07:47:38;100005.44;;;18.55;41.05
74552;BME280;63025;55.472;38.432;2023-04-25T07:50:05;99999.47;;;18.58;40.80
74552;BME280;63025;55.472;38.432;2023-04-25T07:52:32;100003.88;;;18.64;40.33
74552;BME280;63025;55.472;38.432;2023-04-25T07:55:08;99998.91;;;18.98;39.52
74552;BME280;63025;55.472;38.432;2023-04-25T07:57:47;99988.56;;;19.11;38.78
74552;BME280;63025;55.472;38.432;2023-04-25T08:00:14;99984.31;;;19.40;39.14
74552;BME280;63025;55.472;38.432;2023-04-25T08:02:44;99980.84;;;19.75;39.02
74552;BME280;63025;55.472;38.432;2023-04-25T08:05:15;99977.31;;;19.95;37.82
74552;BME280;63025;55.472;38.432;2023-04-25T08:07:44;99981.16;;;20.19;38.22
74552;BME280;63025;55.472;38.432;2023-04-25T08:10:26;99981.59;;;20.77;37.22
74552;BME280;63025;55.472;38.432;2023-04-25T08:12:52;99986.66;;;21.14;35.96
74552;BME280;63025;55.472;38.432;2023-04-25T08:15:18;99988.03;;;21.16;34.62
74552;BME280;63025;55.472;38.432;2023-04-25T08:17:43;99979.91;;;21.50;34.60
74552;BME280;63025;55.472;38.432;2023-04-25T08:20:11;99983.38;;;22.39;33.37
74552;BME280;63025;55.472;38.432;2023-04-25T08:22:37;99984.34;;;22.77;32.66
74552;BME280;63025;55.472;38.432;2023-04-25T08:25:25;99982.47;;;23.20;31.78
74552;BME280;63025;55.472;38.432;2023-04-25T08:27:50;99972.34;;;23.58;31.03
74552;BME280;63025;55.472;38.432;2023-04-25T08:30:19;99978.91;;;24.73;30.62
74552;BME280;63025;55.472;38.432;2023-04-25T08:32:46;99983.84;;;25.04;29.04
74552;BME280;63025;55.472;38.432;2023-04-25T08:35:38;99978.38;;;25.89;27.90
74552;BME280;63025;55.472;38.432;2023-04-25T08:38:05;99985.16;;;25.70;27.98
74552;BME280;63025;55.472;38.432;2023-04-25T08:40:35;99988.94;;;26.41;28.29
74552;BME280;63025;55.472;38.432;2023-04-25T08:43:18;99965.97;;;27.50;26.99
74552;BME280;63025;55.472;38.432;2023-04-25T08:45:44;99973.81;;;27.00;26.10
74552;BME280;63025;55.472;38.432;2023-04-25T08:48:18;99958.31;;;27.30;26.49
74552;BME280;63025;55.472;38.432;2023-04-25T08:50:52;99959.09;;;28.17;25.57
74552;BME280;63025;55.472;38.432;2023-04-25T08:53:26;99958.63;;;28.06;25.44
74552;BME280;63025;55.472;38.432;2023-04-25T08:55:57;99951.84;;;28.59;24.72
74552;BME280;63025;55.472;38.432;2023-04-25T08:58:24;99949.66;;;29.40;24.10
74552;BME280;63025;55.472;38.432;2023-04-25T09:00:51;99955.72;;;29.75;23.42
74552;BME280;63025;55.472;38.432;2023-04-25T09:03:20;99951.16;;;29.38;23.21
74552;BME280;63025;55.472;38.432;2023-04-25T09:05:47;99951.53;;;30.11;22.26
74552;BME280;63025;55.472;38.432;2023-04-25T09:08:15;99951.03;;;30.54;22.04
74552;BME280;63025;55.472;38.432;2023-04-25T09:10:42;99954.16;;;29.86;22.20
74552;BME280;63025;55.472;38.432;2023-04-25T09:13:13;99943.53;;;27.52;24.15
74552;BME280;63025;55.472;38.432;2023-04-25T09:15:59;99946.41;;;27.03;24.73
74552;BME280;63025;55.472;38.432;2023-04-25T09:18:44;99928.66;;;28.42;24.07
74552;BME280;63025;55.472;38.432;2023-04-25T09:21:12;99921.91;;;29.19;23.30
74552;BME280;63025;55.472;38.432;2023-04-25T09:23:45;99924.91;;;28.85;23.74
74552;BME280;63025;55.472;38.432;2023-04-25T09:26:17;99932.38;;;27.57;24.49
74552;BME280;63025;55.472;38.432;2023-04-25T09:28:44;99914.66;;;25.60;26.41
74552;BME280;63025;55.472;38.432;2023-04-25T09:31:12;99907.97;;;24.75;27.66
74552;BME280;63025;55.472;38.432;2023-04-25T09:33:46;99909.00;;;24.20;29.11
74552;BME280;63025;55.472;38.432;2023-04-25T09:36:12;99911.44;;;25.89;27.81
74552;BME280;63025;55.472;38.432;2023-04-25T09:39:00;99903.69;;;28.22;26.05
74552;BME280;63025;55.472;38.432;2023-04-25T09:41:37;99908.25;;;27.06;25.87
74552;BME280;63025;55.472;38.432;2023-04-25T09:44:04;99903.69;;;24.69;27.90
74552;BME280;63025;55.472;38.432;2023-04-25T09:46:34;99906.03;;;23.70;29.20
74552;BME280;63025;55.472;38.432;2023-04-25T09:49:07;99897.97;;;23.92;29.22
74552;BME280;63025;55.472;38.432;2023-04-25T09:51:56;99903.88;;;23.48;30.27
74552;BME280;63025;55.472;38.432;2023-04-25T09:54:27;99897.00;;;23.13;30.21
74552;BME280;63025;55.472;38.432;2023-04-25T09:57:10;99895.53;;;23.91;29.80
74552;BME280;63025;55.472;38.432;2023-04-25T09:59:51;99895.81;;;24.22;29.05
74552;BME280;63025;55.472;38.432;2023-04-25T10:02:21;99892.34;;;23.14;29.69
74552;BME280;63025;55.472;38.432;2023-04-25T10:04:52;99892.09;;;22.91;30.21
74552;BME280;63025;55.472;38.432;2023-04-25T10:07:26;99887.59;;;23.00;30.68
74552;BME280;63025;55.472;38.432;2023-04-25T10:09:59;99896.06;;;24.80;29.26
74552;BME280;63025;55.472;38.432;2023-04-25T10:12:26;99879.59;;;24.39;28.97
74552;BME280;63025;55.472;38.432;2023-04-25T10:14:52;99892.47;;;23.60;29.91
74552;BME280;63025;55.472;38.432;2023-04-25T10:17:19;99883.91;;;25.08;28.77
74552;BME280;63025;55.472;38.432;2023-04-25T10:19:49;99884.63;;;25.72;28.02
74552;BME280;63025;55.472;38.432;2023-04-25T10:22:35;99880.00;;;26.43;26.08
74552;BME280;63025;55.472;38.432;2023-04-25T10:25:02;99871.72;;;27.00;25.47
74552;BME280;63025;55.472;38.432;2023-04-25T10:27:31;99863.81;;;27.50;25.19
74552;BME280;63025;55.472;38.432;2023-04-25T10:30:16;99864.91;;;26.41;25.82
74552;BME280;63025;55.472;38.432;2023-04-25T10:32:42;99863.34;;;24.92;26.59
74552;BME280;63025;55.472;38.432;2023-04-25T10:35:23;99865.44;;;23.99;28.03
74552;BME280;63025;55.472;38.432;2023-04-25T10:38:09;99863.97;;;24.62;27.48
74552;BME280;63025;55.472;38.432;2023-04-25T10:40:36;99850.66;;;24.69;27.35
74552;BME280;63025;55.472;38.432;2023-04-25T10:46:02;99850.22;;;24.62;27.79
74552;BME280;63025;55.472;38.432;2023-04-25T10:48:30;99844.19;;;24.87;27.63
74552;BME280;63025;55.472;38.432;2023-04-25T10:51:16;99848.16;;;23.85;28.53
74552;BME280;63025;55.472;38.432;2023-04-25T10:54:02;99843.03;;;23.27;29.23
74552;BME280;63025;55.472;38.432;2023-04-25T10:56:32;99841.44;;;22.65;30.03
74552;BME280;63025;55.472;38.432;2023-04-25T11:01:35;99827.34;;;23.14;30.12
74552;BME280;63025;55.472;38.432;2023-04-25T11:04:02;99820.88;;;24.98;27.93
74552;BME280;63025;55.472;38.432;2023-04-25T11:09:10;99814.34;;;27.83;24.89
74552;BME280;63025;55.472;38.432;2023-04-25T11:11:39;99816.22;;;28.46;23.22
74552;BME280;63025;55.472;38.432;2023-04-25T11:14:04;99810.25;;;28.95;22.10
74552;BME280;63025;55.472;38.432;2023-04-25T11:16:30;99808.00;;;28.88;22.02
74552;BME280;63025;55.472;38.432;2023-04-25T11:18:58;99801.50;;;28.63;22.21
74552;BME280;63025;55.472;38.432;2023-04-25T11:21:27;99799.63;;;29.17;21.66
74552;BME280;63025;55.472;38.432;2023-04-25T11:23:54;99808.31;;;29.94;21.33
74552;BME280;63025;55.472;38.432;2023-04-25T11:26:20;99792.31;;;29.34;20.87
74552;BME280;63025;55.472;38.432;2023-04-25T11:28:46;99786.63;;;28.47;21.81
74552;BME280;63025;55.472;38.432;2023-04-25T11:31:12;99786.63;;;28.47;22.51
74552;BME280;63025;55.472;38.432;2023-04-25T11:33:38;99790.97;;;28.86;22.47
74552;BME280;63025;55.472;38.432;2023-04-25T11:36:06;99775.78;;;28.42;22.54
74552;BME280;63025;55.472;38.432;2023-04-25T11:38:32;99775.31;;;28.61;22.48
74552;BME280;63025;55.472;38.432;2023-04-25T11:40:58;99771.13;;;28.34;21.98
74552;BME280;63025;55.472;38.432;2023-04-25T11:43:25;99763.50;;;28.52;22.38
74552;BME280;63025;55.472;38.432;2023-04-25T11:45:51;99764.06;;;28.07;22.77
74552;BME280;63025;55.472;38.432;2023-04-25T11:48:18;99764.03;;;28.66;22.36
74552;BME280;63025;55.472;38.432;2023-04-25T11:50:44;99753.03;;;28.36;21.58
74552;BME280;63025;55.472;38.432;2023-04-25T11:53:10;99746.59;;;28.74;21.60
74552;BME280;63025;55.472;38.432;2023-04-25T11:55:37;99741.41;;;28.93;21.55
74552;BME280;63025;55.472;38.432;2023-04-25T11:58:03;99737.75;;;28.60;21.51
74552;BME280;63025;55.472;38.432;2023-04-25T12:00:30;99750.50;;;26.86;21.92
74552;BME280;63025;55.472;38.432;2023-04-25T12:02:57;99735.19;;;25.89;23.16
74552;BME280;63025;55.472;38.432;2023-04-25T12:05:25;99734.50;;;25.75;23.55
74552;BME280;63025;55.472;38.432;2023-04-25T12:07:52;99738.47;;;25.60;24.02
74552;BME280;63025;55.472;38.432;2023-04-25T12:10:18;99726.13;;;25.57;24.30
74552;BME280;63025;55.472;38.432;2023-04-25T12:12:46;99733.78;;;25.38;24.49
74552;BME280;63025;55.472;38.432;2023-04-25T12:15:25;99724.06;;;25.10;25.30
74552;BME280;63025;55.472;38.432;2023-04-25T12:17:53;99721.63;;;24.50;25.37
74552;BME280;63025;55.472;38.432;2023-04-25T12:20:21;99720.28;;;24.83;25.57
74552;BME280;63025;55.472;38.432;2023-04-25T12:22:50;99707.97;;;24.59;25.60
74552;BME280;63025;55.472;38.432;2023-04-25T12:28:10;99697.84;;;24.18;26.09
74552;BME280;63025;55.472;38.432;2023-04-25T12:33:31;99693.78;;;24.65;25.80
74552;BME280;63025;55.472;38.432;2023-04-25T12:35:58;99674.84;;;24.86;25.37
74552;BME280;63025;55.472;38.432;2023-04-25T12:38:27;99683.25;;;25.34;24.65
74552;BME280;63025;55.472;38.432;2023-04-25T12:40:55;99668.69;;;25.65;24.56
74552;BME280;63025;55.472;38.432;2023-04-25T12:43:22;99657.06;;;25.68;24.12
74552;BME280;63025;55.472;38.432;2023-04-25T12:45:52;99660.53;;;25.99;24.18
74552;BME280;63025;55.472;38.432;2023-04-25T12:48:19;99656.41;;;26.45;23.58
74552;BME280;63025;55.472;38.432;2023-04-25T12:50:46;99653.84;;;27.38;22.89
74552;BME280;63025;55.472;38.432;2023-04-25T12:53:16;99649.72;;;27.91;22.94
74552;BME280;63025;55.472;38.432;2023-04-25T12:55:42;99646.66;;;28.13;22.82
74552;BME280;63025;55.472;38.432;2023-04-25T12:58:08;99641.69;;;28.27;22.14
74552;BME280;63025;55.472;38.432;2023-04-25T13:00:34;99639.97;;;28.23;22.54
74552;BME280;63025;55.472;38.432;2023-04-25T13:03:00;99630.38;;;28.20;22.42
74552;BME280;63025;55.472;38.432;2023-04-25T13:05:25;99628.81;;;28.31;22.71
74552;BME280;63025;55.472;38.432;2023-04-25T13:07:52;99620.22;;;28.45;22.04
74552;BME280;63025;55.472;38.432;2023-04-25T13:10:18;99607.44;;;28.20;22.01
74552;BME280;63025;55.472;38.432;2023-04-25T13:12:45;99605.13;;;28.01;22.74